Terminal Aerodrome Forecast
Issued by NWS

Home | Current Version | Previous Version | Text Only | Print | Product List | Glossary Off
Versions: 1 2 3 4 5 6 7 8 9 10 11 12 13 14 15 16 17 18 19 20 21 22 23 24 25 26 27 28 29 30 31 32 33 34 35 36 37 38 39 40 41 42 43 44 45 46 47 48 49 50

170
FTUS43 KLOT 290918 AAA
TAFGYY
TAF AMD
KGYY 290918Z 2909/3006 VRB02KT 5SM BR SCT004 BKN035
      TEMPO 2910/2912 2SM BR
     FM291300 08005KT 6SM BR SCT008 BKN035
     FM291500 06009KT P6SM VCSH BKN025
      TEMPO 2917/2920 5SM -SHRA
     FM292200 04010KT P6SM BKN040
     FM300200 05006KT 6SM BR BKN040=

USA.gov is the U.S. government's official web portal to all federal, state and local government web resources and services.